sensor_id;sensor_type;location;lat;lon;timestamp;temperature;humidity
4637;DHT22;2331;48.806;9.140;2023-05-19T00:00:55;15.20;1.00
4637;DHT22;2331;48.806;9.140;2023-05-19T00:03:22;15.10;1.00
4637;DHT22;2331;48.806;9.140;2023-05-19T00:05:52;15.10;1.00
4637;DHT22;2331;48.806;9.140;2023-05-19T00:08:22;15.10;1.00
4637;DHT22;2331;48.806;9.140;2023-05-19T00:10:49;15.20;1.00
4637;DHT22;2331;48.806;9.140;2023-05-19T00:13:18;15.20;1.00
4637;DHT22;2331;48.806;9.140;2023-05-19T00:15:45;15.20;1.00
4637;DHT22;2331;48.806;9.140;2023-05-19T00:18:12;15.10;1.00
4637;DHT22;2331;48.806;9.140;2023-05-19T00:20:41;15.00;1.00
4637;DHT22;2331;48.806;9.140;2023-05-19T00:23:08;15.00;1.00
4637;DHT22;2331;48.806;9.140;2023-05-19T00:25:34;15.00;1.00
4637;DHT22;2331;48.806;9.140;2023-05-19T00:28:01;15.00;1.00
4637;DHT22;2331;48.806;9.140;2023-05-19T00:30:30;15.00;1.00
4637;DHT22;2331;48.806;9.140;2023-05-19T00:32:56;15.00;1.00
4637;DHT22;2331;48.806;9.140;2023-05-19T00:35:23;14.90;1.00
4637;DHT22;2331;48.806;9.140;2023-05-19T00:37:50;14.90;1.00
4637;DHT22;2331;48.806;9.140;2023-05-19T00:40:17;14.80;1.00
4637;DHT22;2331;48.806;9.140;2023-05-19T00:42:44;14.80;1.00
4637;DHT22;2331;48.806;9.140;2023-05-19T00:45:10;14.80;1.00
4637;DHT22;2331;48.806;9.140;2023-05-19T00:47:38;14.80;1.00
4637;DHT22;2331;48.806;9.140;2023-05-19T00:50:06;14.80;1.00
4637;DHT22;2331;48.806;9.140;2023-05-19T00:52:32;14.80;1.00
4637;DHT22;2331;48.806;9.140;2023-05-19T00:54:59;14.80;1.00
4637;DHT22;2331;48.806;9.140;2023-05-19T00:57:27;14.80;1.00
4637;DHT22;2331;48.806;9.140;2023-05-19T00:59:53;14.70;1.00
4637;DHT22;2331;48.806;9.140;2023-05-19T01:02:20;14.60;1.00
4637;DHT22;2331;48.806;9.140;2023-05-19T01:04:49;14.60;1.00
4637;DHT22;2331;48.806;9.140;2023-05-19T01:07:17;14.60;1.00
4637;DHT22;2331;48.806;9.140;2023-05-19T01:09:46;14.60;1.00
4637;DHT22;2331;48.806;9.140;2023-05-19T01:12:13;14.50;1.00
4637;DHT22;2331;48.806;9.140;2023-05-19T01:14:40;14.50;1.00
4637;DHT22;2331;48.806;9.140;2023-05-19T01:17:13;14.50;1.00
4637;DHT22;2331;48.806;9.140;2023-05-19T01:19:54;14.40;1.00
4637;DHT22;2331;48.806;9.140;2023-05-19T01:22:47;14.50;1.00
4637;DHT22;2331;48.806;9.140;2023-05-19T01:28:29;14.50;1.00
4637;DHT22;2331;48.806;9.140;2023-05-19T01:30:59;14.40;1.00
4637;DHT22;2331;48.806;9.140;2023-05-19T01:33:29;14.40;1.00
4637;DHT22;2331;48.806;9.140;2023-05-19T01:35:57;14.30;1.00
4637;DHT22;2331;48.806;9.140;2023-05-19T01:38:27;14.30;1.00
4637;DHT22;2331;48.806;9.140;2023-05-19T01:40:55;14.30;1.00
4637;DHT22;2331;48.806;9.140;2023-05-19T01:43:24;14.30;1.00
4637;DHT22;2331;48.806;9.140;2023-05-19T01:45:52;14.30;1.00
4637;DHT22;2331;48.806;9.140;2023-05-19T01:48:20;14.20;1.00
4637;DHT22;2331;48.806;9.140;2023-05-19T01:50:48;14.20;1.00
4637;DHT22;2331;48.806;9.140;2023-05-19T01:53:15;14.20;1.00
4637;DHT22;2331;48.806;9.140;2023-05-19T01:55:43;14.20;1.00
4637;DHT22;2331;48.806;9.140;2023-05-19T01:58:17;14.20;1.00
4637;DHT22;2331;48.806;9.140;2023-05-19T02:00:52;14.20;1.00
4637;DHT22;2331;48.806;9.140;2023-05-19T02:03:32;14.20;1.00
4637;DHT22;2331;48.806;9.140;2023-05-19T02:06:13;14.10;1.00
4637;DHT22;2331;48.806;9.140;2023-05-19T02:08:48;14.10;1.00
4637;DHT22;2331;48.806;9.140;2023-05-19T02:11:21;14.00;1.00
4637;DHT22;2331;48.806;9.140;2023-05-19T02:13:49;14.00;1.00
4637;DHT22;2331;48.806;9.140;2023-05-19T02:16:20;14.00;1.00
4637;DHT22;2331;48.806;9.140;2023-05-19T02:18:50;14.10;1.00
4637;DHT22;2331;48.806;9.140;2023-05-19T02:21:18;14.00;1.00
4637;DHT22;2331;48.806;9.140;2023-05-19T02:23:45;14.00;1.00
4637;DHT22;2331;48.806;9.140;2023-05-19T02:26:12;14.00;1.00
4637;DHT22;2331;48.806;9.140;2023-05-19T02:28:39;14.00;1.00
4637;DHT22;2331;48.806;9.140;2023-05-19T02:31:05;14.00;1.00
4637;DHT22;2331;48.806;9.140;2023-05-19T02:33:34;14.00;1.00
4637;DHT22;2331;48.806;9.140;2023-05-19T02:36:03;14.00;1.00
4637;DHT22;2331;48.806;9.140;2023-05-19T02:38:30;14.00;1.00
4637;DHT22;2331;48.806;9.140;2023-05-19T02:40:57;14.00;1.00
4637;DHT22;2331;48.806;9.140;2023-05-19T02:43:24;13.90;1.00
4637;DHT22;2331;48.806;9.140;2023-05-19T02:45:50;13.80;1.00
4637;DHT22;2331;48.806;9.140;2023-05-19T02:48:17;13.80;1.00
4637;DHT22;2331;48.806;9.140;2023-05-19T02:50:44;13.80;1.00
4637;DHT22;2331;48.806;9.140;2023-05-19T02:53:12;13.70;1.00
4637;DHT22;2331;48.806;9.140;2023-05-19T02:55:39;13.80;1.00
4637;DHT22;2331;48.806;9.140;2023-05-19T02:58:06;13.70;1.00
4637;DHT22;2331;48.806;9.140;2023-05-19T03:00:32;13.70;1.00
4637;DHT22;2331;48.806;9.140;2023-05-19T03:02:59;13.70;1.00
4637;DHT22;2331;48.806;9.140;2023-05-19T03:05:29;13.70;1.00
4637;DHT22;2331;48.806;9.140;2023-05-19T03:07:56;13.70;1.00
4637;DHT22;2331;48.806;9.140;2023-05-19T03:10:24;13.70;1.00
4637;DHT22;2331;48.806;9.140;2023-05-19T03:12:51;13.70;1.00
4637;DHT22;2331;48.806;9.140;2023-05-19T03:15:18;13.70;1.00
4637;DHT22;2331;48.806;9.140;2023-05-19T03:17:45;13.70;1.00
4637;DHT22;2331;48.806;9.140;2023-05-19T03:20:12;13.60;1.00
4637;DHT22;2331;48.806;9.140;2023-05-19T03:22:40;13.60;1.00
4637;DHT22;2331;48.806;9.140;2023-05-19T03:25:07;13.50;1.00
4637;DHT22;2331;48.806;9.140;2023-05-19T03:27:35;13.40;1.00
4637;DHT22;2331;48.806;9.140;2023-05-19T03:30:03;13.50;1.00
4637;DHT22;2331;48.806;9.140;2023-05-19T03:32:30;13.50;1.00
4637;DHT22;2331;48.806;9.140;2023-05-19T03:34:58;13.50;1.00
4637;DHT22;2331;48.806;9.140;2023-05-19T03:37:25;13.40;1.00
4637;DHT22;2331;48.806;9.140;2023-05-19T03:39:52;13.40;1.00
4637;DHT22;2331;48.806;9.140;2023-05-19T03:42:20;13.20;1.00
4637;DHT22;2331;48.806;9.140;2023-05-19T03:44:48;13.20;1.00
4637;DHT22;2331;48.806;9.140;2023-05-19T03:47:15;13.20;1.00
4637;DHT22;2331;48.806;9.140;2023-05-19T03:49:42;13.10;1.00
4637;DHT22;2331;48.806;9.140;2023-05-19T03:52:09;13.10;1.00
4637;DHT22;2331;48.806;9.140;2023-05-19T03:54:37;13.20;1.00
4637;DHT22;2331;48.806;9.140;2023-05-19T03:57:04;13.20;1.00
4637;DHT22;2331;48.806;9.140;2023-05-19T03:59:31;13.20;1.00
4637;DHT22;2331;48.806;9.140;2023-05-19T04:01:59;13.20;1.00
4637;DHT22;2331;48.806;9.140;2023-05-19T04:04:26;13.10;1.00
4637;DHT22;2331;48.806;9.140;2023-05-19T04:06:56;13.10;1.00
4637;DHT22;2331;48.806;9.140;2023-05-19T04:09:23;13.10;1.00
4637;DHT22;2331;48.806;9.140;2023-05-19T04:11:50;13.10;1.00
4637;DHT22;2331;48.806;9.140;2023-05-19T04:14:17;13.00;1.00
4637;DHT22;2331;48.806;9.140;2023-05-19T04:16:44;13.10;1.00
4637;DHT22;2331;48.806;9.140;2023-05-19T04:19:12;13.00;1.00
4637;DHT22;2331;48.806;9.140;2023-05-19T04:21:39;13.00;1.00
4637;DHT22;2331;48.806;9.140;2023-05-19T04:24:06;13.00;1.00
4637;DHT22;2331;48.806;9.140;2023-05-19T04:26:33;13.00;1.00
4637;DHT22;2331;48.806;9.140;2023-05-19T04:29:00;13.00;1.00
4637;DHT22;2331;48.806;9.140;2023-05-19T04:31:28;13.00;1.00
4637;DHT22;2331;48.806;9.140;2023-05-19T04:33:55;13.00;1.00
4637;DHT22;2331;48.806;9.140;2023-05-19T04:36:23;13.00;1.00
4637;DHT22;2331;48.806;9.140;2023-05-19T04:38:50;12.90;1.00
4637;DHT22;2331;48.806;9.140;2023-05-19T04:41:19;13.00;1.00
4637;DHT22;2331;48.806;9.140;2023-05-19T04:43:46;12.90;1.00
4637;DHT22;2331;48.806;9.140;2023-05-19T04:46:14;12.90;1.00
4637;DHT22;2331;48.806;9.140;2023-05-19T04:48:41;12.90;1.00
4637;DHT22;2331;48.806;9.140;2023-05-19T04:51:08;12.90;1.00
4637;DHT22;2331;48.806;9.140;2023-05-19T04:53:40;12.80;1.00
4637;DHT22;2331;48.806;9.140;2023-05-19T04:56:07;12.80;1.00
4637;DHT22;2331;48.806;9.140;2023-05-19T04:58:33;12.80;1.00
4637;DHT22;2331;48.806;9.140;2023-05-19T05:01:00;12.80;1.00
4637;DHT22;2331;48.806;9.140;2023-05-19T05:03:28;12.80;1.00
4637;DHT22;2331;48.806;9.140;2023-05-19T05:05:55;12.80;1.00
4637;DHT22;2331;48.806;9.140;2023-05-19T05:08:26;12.80;1.00
4637;DHT22;2331;48.806;9.140;2023-05-19T05:10:56;12.80;1.00
4637;DHT22;2331;48.806;9.140;2023-05-19T05:13:24;12.80;1.00
4637;DHT22;2331;48.806;9.140;2023-05-19T05:15:51;12.90;1.00
4637;DHT22;2331;48.806;9.140;2023-05-19T05:18:19;12.90;1.00
4637;DHT22;2331;48.806;9.140;2023-05-19T05:20:47;13.00;1.00
4637;DHT22;2331;48.806;9.140;2023-05-19T05:23:14;13.10;1.00
4637;DHT22;2331;48.806;9.140;2023-05-19T05:25:42;13.10;1.00
4637;DHT22;2331;48.806;9.140;2023-05-19T05:28:11;13.20;1.00
4637;DHT22;2331;48.806;9.140;2023-05-19T05:30:38;13.10;1.00
4637;DHT22;2331;48.806;9.140;2023-05-19T05:33:06;13.10;1.00
4637;DHT22;2331;48.806;9.140;2023-05-19T05:35:33;13.10;1.00
4637;DHT22;2331;48.806;9.140;2023-05-19T05:37:59;13.10;1.00
4637;DHT22;2331;48.806;9.140;2023-05-19T05:40:27;13.10;1.00
4637;DHT22;2331;48.806;9.140;2023-05-19T05:42:53;13.20;1.00
4637;DHT22;2331;48.806;9.140;2023-05-19T05:45:22;13.30;1.00
4637;DHT22;2331;48.806;9.140;2023-05-19T05:47:49;13.20;1.00
4637;DHT22;2331;48.806;9.140;2023-05-19T05:50:17;13.30;1.00
4637;DHT22;2331;48.806;9.140;2023-05-19T05:52:45;13.30;1.00
4637;DHT22;2331;48.806;9.140;2023-05-19T05:55:13;13.40;1.00
4637;DHT22;2331;48.806;9.140;2023-05-19T05:57:41;13.30;1.00
4637;DHT22;2331;48.806;9.140;2023-05-19T06:00:09;13.30;1.00
4637;DHT22;2331;48.806;9.140;2023-05-19T06:02:41;13.40;1.00
4637;DHT22;2331;48.806;9.140;2023-05-19T06:05:09;13.50;1.00
4637;DHT22;2331;48.806;9.140;2023-05-19T06:07:36;13.40;1.00
4637;DHT22;2331;48.806;9.140;2023-05-19T06:10:05;13.40;1.00
4637;DHT22;2331;48.806;9.140;2023-05-19T06:12:32;13.30;1.00
4637;DHT22;2331;48.806;9.140;2023-05-19T06:14:58;13.40;1.00
4637;DHT22;2331;48.806;9.140;2023-05-19T06:17:25;13.40;1.00
4637;DHT22;2331;48.806;9.140;2023-05-19T06:19:53;13.50;1.00
4637;DHT22;2331;48.806;9.140;2023-05-19T06:22:20;13.60;1.00
4637;DHT22;2331;48.806;9.140;2023-05-19T06:24:47;13.60;1.00
4637;DHT22;2331;48.806;9.140;2023-05-19T06:27:13;13.70;1.00
4637;DHT22;2331;48.806;9.140;2023-05-19T06:29:40;13.80;1.00
4637;DHT22;2331;48.806;9.140;2023-05-19T06:32:07;13.70;1.00
4637;DHT22;2331;48.806;9.140;2023-05-19T06:34:34;13.80;1.00
4637;DHT22;2331;48.806;9.140;2023-05-19T06:37:04;14.00;1.00
4637;DHT22;2331;48.806;9.140;2023-05-19T06:39:31;14.00;1.00
4637;DHT22;2331;48.806;9.140;2023-05-19T06:41:57;14.00;1.00
4637;DHT22;2331;48.806;9.140;2023-05-19T06:44:24;14.00;1.00
4637;DHT22;2331;48.806;9.140;2023-05-19T06:46:51;14.10;1.00
4637;DHT22;2331;48.806;9.140;2023-05-19T06:49:18;14.10;1.00
4637;DHT22;2331;48.806;9.140;2023-05-19T06:51:44;14.10;1.00
4637;DHT22;2331;48.806;9.140;2023-05-19T06:54:13;14.30;1.00
4637;DHT22;2331;48.806;9.140;2023-05-19T06:56:40;14.30;1.00
4637;DHT22;2331;48.806;9.140;2023-05-19T06:59:07;14.40;1.00
4637;DHT22;2331;48.806;9.140;2023-05-19T07:01:34;14.40;1.00
4637;DHT22;2331;48.806;9.140;2023-05-19T07:04:00;14.40;1.00
4637;DHT22;2331;48.806;9.140;2023-05-19T07:06:27;14.50;1.00
4637;DHT22;2331;48.806;9.140;2023-05-19T07:08:54;14.60;1.00
4637;DHT22;2331;48.806;9.140;2023-05-19T07:11:22;14.70;1.00
4637;DHT22;2331;48.806;9.140;2023-05-19T07:13:49;14.70;1.00
4637;DHT22;2331;48.806;9.140;2023-05-19T07:16:15;14.80;1.00
4637;DHT22;2331;48.806;9.140;2023-05-19T07:18:42;14.80;1.00
4637;DHT22;2331;48.806;9.140;2023-05-19T07:21:09;14.90;1.00
4637;DHT22;2331;48.806;9.140;2023-05-19T07:23:35;15.00;1.00
4637;DHT22;2331;48.806;9.140;2023-05-19T07:26:02;15.00;1.00
4637;DHT22;2331;48.806;9.140;2023-05-19T07:28:30;15.20;1.00
4637;DHT22;2331;48.806;9.140;2023-05-19T07:30:58;15.30;1.00
4637;DHT22;2331;48.806;9.140;2023-05-19T07:33:25;15.30;1.00
4637;DHT22;2331;48.806;9.140;2023-05-19T07:35:52;15.30;1.00
4637;DHT22;2331;48.806;9.140;2023-05-19T07:38:19;15.40;1.00
4637;DHT22;2331;48.806;9.140;2023-05-19T07:40:46;15.40;1.00
4637;DHT22;2331;48.806;9.140;2023-05-19T07:43:12;15.50;1.00
4637;DHT22;2331;48.806;9.140;2023-05-19T07:45:41;15.50;1.00
4637;DHT22;2331;48.806;9.140;2023-05-19T07:48:07;15.50;1.00
4637;DHT22;2331;48.806;9.140;2023-05-19T07:50:34;15.50;1.00
4637;DHT22;2331;48.806;9.140;2023-05-19T07:53:13;15.60;1.00
4637;DHT22;2331;48.806;9.140;2023-05-19T07:55:55;15.70;1.00
4637;DHT22;2331;48.806;9.140;2023-05-19T07:58:27;15.70;1.00
4637;DHT22;2331;48.806;9.140;2023-05-19T08:01:08;15.60;1.00
4637;DHT22;2331;48.806;9.140;2023-05-19T08:03:37;15.70;1.00
4637;DHT22;2331;48.806;9.140;2023-05-19T08:06:04;15.80;1.00
4637;DHT22;2331;48.806;9.140;2023-05-19T08:08:31;15.80;1.00
4637;DHT22;2331;48.806;9.140;2023-05-19T08:11:01;15.80;1.00
4637;DHT22;2331;48.806;9.140;2023-05-19T08:13:28;15.90;1.00
4637;DHT22;2331;48.806;9.140;2023-05-19T08:15:57;16.00;1.00
4637;DHT22;2331;48.806;9.140;2023-05-19T08:18:24;16.00;1.00
4637;DHT22;2331;48.806;9.140;2023-05-19T08:20:51;16.10;1.00
4637;DHT22;2331;48.806;9.140;2023-05-19T08:23:18;16.10;1.00
4637;DHT22;2331;48.806;9.140;2023-05-19T08:25:45;16.10;1.00
4637;DHT22;2331;48.806;9.140;2023-05-19T08:28:12;16.10;1.00
4637;DHT22;2331;48.806;9.140;2023-05-19T08:33:53;16.10;1.00
4637;DHT22;2331;48.806;9.140;2023-05-19T08:36:19;16.30;1.00
4637;DHT22;2331;48.806;9.140;2023-05-19T08:38:47;16.30;1.00
4637;DHT22;2331;48.806;9.140;2023-05-19T08:41:14;16.20;1.00
4637;DHT22;2331;48.806;9.140;2023-05-19T08:43:41;16.20;1.00
4637;DHT22;2331;48.806;9.140;2023-05-19T08:46:11;16.20;1.00
4637;DHT22;2331;48.806;9.140;2023-05-19T08:48:41;16.10;1.00
4637;DHT22;2331;48.806;9.140;2023-05-19T08:51:19;16.20;1.00
4637;DHT22;2331;48.806;9.140;2023-05-19T08:53:49;16.30;1.00
4637;DHT22;2331;48.806;9.140;2023-05-19T08:56:20;16.30;1.00
4637;DHT22;2331;48.806;9.140;2023-05-19T08:58:48;16.40;1.00
4637;DHT22;2331;48.806;9.140;2023-05-19T09:01:16;16.30;1.00
4637;DHT22;2331;48.806;9.140;2023-05-19T09:03:44;16.30;1.00
4637;DHT22;2331;48.806;9.140;2023-05-19T09:06:12;16.40;1.00
4637;DHT22;2331;48.806;9.140;2023-05-19T09:08:40;16.40;1.00
4637;DHT22;2331;48.806;9.140;2023-05-19T09:11:08;16.50;1.00
4637;DHT22;2331;48.806;9.140;2023-05-19T09:13:35;16.50;1.00
4637;DHT22;2331;48.806;9.140;2023-05-19T09:16:02;16.50;1.00
4637;DHT22;2331;48.806;9.140;2023-05-19T09:18:29;16.50;1.00
4637;DHT22;2331;48.806;9.140;2023-05-19T09:20:57;16.50;1.00
4637;DHT22;2331;48.806;9.140;2023-05-19T09:23:28;16.60;1.00
4637;DHT22;2331;48.806;9.140;2023-05-19T09:25:55;16.70;1.00
4637;DHT22;2331;48.806;9.140;2023-05-19T09:28:23;16.70;1.00
4637;DHT22;2331;48.806;9.140;2023-05-19T09:31:00;16.80;1.00
4637;DHT22;2331;48.806;9.140;2023-05-19T09:33:27;16.80;1.00
4637;DHT22;2331;48.806;9.140;2023-05-19T09:35:54;16.80;1.00
4637;DHT22;2331;48.806;9.140;2023-05-19T09:38:23;16.70;1.00
4637;DHT22;2331;48.806;9.140;2023-05-19T09:40:51;16.80;1.00
4637;DHT22;2331;48.806;9.140;2023-05-19T09:43:19;16.80;1.00
4637;DHT22;2331;48.806;9.140;2023-05-19T09:45:46;16.90;1.00
4637;DHT22;2331;48.806;9.140;2023-05-19T09:48:13;16.90;1.00
4637;DHT22;2331;48.806;9.140;2023-05-19T09:50:41;17.00;1.00
4637;DHT22;2331;48.806;9.140;2023-05-19T09:53:11;16.90;1.00
4637;DHT22;2331;48.806;9.140;2023-05-19T09:55:39;16.90;1.00
4637;DHT22;2331;48.806;9.140;2023-05-19T09:58:09;16.90;1.00
4637;DHT22;2331;48.806;9.140;2023-05-19T10:00:37;16.90;1.00
4637;DHT22;2331;48.806;9.140;2023-05-19T10:03:04;17.00;1.00
4637;DHT22;2331;48.806;9.140;2023-05-19T10:05:32;17.00;1.00
4637;DHT22;2331;48.806;9.140;2023-05-19T10:07:59;17.00;1.00
4637;DHT22;2331;48.806;9.140;2023-05-19T10:10:27;16.90;1.00
4637;DHT22;2331;48.806;9.140;2023-05-19T10:12:55;16.80;1.00
4637;DHT22;2331;48.806;9.140;2023-05-19T10:15:25;16.80;1.00
4637;DHT22;2331;48.806;9.140;2023-05-19T10:17:53;16.80;1.00
4637;DHT22;2331;48.806;9.140;2023-05-19T10:20:20;16.90;1.00
4637;DHT22;2331;48.806;9.140;2023-05-19T10:22:47;16.80;1.00
4637;DHT22;2331;48.806;9.140;2023-05-19T10:25:14;16.80;1.00
4637;DHT22;2331;48.806;9.140;2023-05-19T10:27:49;16.90;1.00
4637;DHT22;2331;48.806;9.140;2023-05-19T10:30:19;17.00;1.00
4637;DHT22;2331;48.806;9.140;2023-05-19T10:32:50;17.10;1.00
4637;DHT22;2331;48.806;9.140;2023-05-19T10:35:50;17.20;1.00
4637;DHT22;2331;48.806;9.140;2023-05-19T10:38:26;17.20;1.00
4637;DHT22;2331;48.806;9.140;2023-05-19T10:41:00;17.30;1.00
4637;DHT22;2331;48.806;9.140;2023-05-19T10:43:38;17.40;1.00
4637;DHT22;2331;48.806;9.140;2023-05-19T10:46:07;17.30;1.00
4637;DHT22;2331;48.806;9.140;2023-05-19T10:48:37;17.20;1.00
4637;DHT22;2331;48.806;9.140;2023-05-19T10:51:09;17.10;1.00
4637;DHT22;2331;48.806;9.140;2023-05-19T10:53:39;17.20;1.00
4637;DHT22;2331;48.806;9.140;2023-05-19T10:56:11;17.20;1.00
4637;DHT22;2331;48.806;9.140;2023-05-19T10:58:52;17.20;1.00
4637;DHT22;2331;48.806;9.140;2023-05-19T11:01:19;17.30;1.00
4637;DHT22;2331;48.806;9.140;2023-05-19T11:03:51;17.30;1.00
4637;DHT22;2331;48.806;9.140;2023-05-19T11:06:19;17.30;1.00
4637;DHT22;2331;48.806;9.140;2023-05-19T11:08:50;17.30;1.00
4637;DHT22;2331;48.806;9.140;2023-05-19T11:11:17;17.30;1.00
4637;DHT22;2331;48.806;9.140;2023-05-19T11:13:46;17.30;1.00
4637;DHT22;2331;48.806;9.140;2023-05-19T11:16:13;17.30;1.00
4637;DHT22;2331;48.806;9.140;2023-05-19T11:18:40;17.30;1.00
4637;DHT22;2331;48.806;9.140;2023-05-19T11:21:08;17.20;1.00
4637;DHT22;2331;48.806;9.140;2023-05-19T11:23:37;17.30;1.00
4637;DHT22;2331;48.806;9.140;2023-05-19T11:26:06;17.30;1.00
4637;DHT22;2331;48.806;9.140;2023-05-19T11:28:33;17.40;1.00
4637;DHT22;2331;48.806;9.140;2023-05-19T11:31:01;17.40;1.00
4637;DHT22;2331;48.806;9.140;2023-05-19T11:33:28;17.40;1.00
4637;DHT22;2331;48.806;9.140;2023-05-19T11:35:57;17.30;1.00
4637;DHT22;2331;48.806;9.140;2023-05-19T11:38:27;17.40;1.00
4637;DHT22;2331;48.806;9.140;2023-05-19T11:40:54;17.40;1.00
4637;DHT22;2331;48.806;9.140;2023-05-19T11:43:22;17.40;1.00
4637;DHT22;2331;48.806;9.140;2023-05-19T11:45:49;17.40;1.00
4637;DHT22;2331;48.806;9.140;2023-05-19T11:48:19;17.50;1.00
4637;DHT22;2331;48.806;9.140;2023-05-19T11:50:46;17.50;1.00
4637;DHT22;2331;48.806;9.140;2023-05-19T11:53:14;17.60;1.00
4637;DHT22;2331;48.806;9.140;2023-05-19T11:55:44;17.60;1.00
4637;DHT22;2331;48.806;9.140;2023-05-19T11:58:11;17.60;1.00
4637;DHT22;2331;48.806;9.140;2023-05-19T12:00:39;17.60;1.00
4637;DHT22;2331;48.806;9.140;2023-05-19T12:03:07;17.70;1.00
4637;DHT22;2331;48.806;9.140;2023-05-19T12:05:36;17.70;1.00
4637;DHT22;2331;48.806;9.140;2023-05-19T12:08:03;17.80;1.00
4637;DHT22;2331;48.806;9.140;2023-05-19T12:10:30;17.80;1.00
4637;DHT22;2331;48.806;9.140;2023-05-19T12:13:02;17.70;1.00
4637;DHT22;2331;48.806;9.140;2023-05-19T12:15:30;17.80;1.00
4637;DHT22;2331;48.806;9.140;2023-05-19T12:18:00;17.80;1.00
4637;DHT22;2331;48.806;9.140;2023-05-19T12:20:28;17.90;1.00
4637;DHT22;2331;48.806;9.140;2023-05-19T12:22:56;17.90;1.00
4637;DHT22;2331;48.806;9.140;2023-05-19T12:25:24;18.00;1.00
4637;DHT22;2331;48.806;9.140;2023-05-19T12:27:51;17.90;1.00
4637;DHT22;2331;48.806;9.140;2023-05-19T12:30:25;17.90;1.00
4637;DHT22;2331;48.806;9.140;2023-05-19T12:32:53;17.90;1.00
4637;DHT22;2331;48.806;9.140;2023-05-19T12:35:25;17.90;1.00
4637;DHT22;2331;48.806;9.140;2023-05-19T12:37:52;18.00;1.00
4637;DHT22;2331;48.806;9.140;2023-05-19T12:40:19;18.00;1.00
4637;DHT22;2331;48.806;9.140;2023-05-19T12:42:46;18.10;1.00
4637;DHT22;2331;48.806;9.140;2023-05-19T12:45:19;18.10;1.00
4637;DHT22;2331;48.806;9.140;2023-05-19T12:47:49;18.00;1.00
4637;DHT22;2331;48.806;9.140;2023-05-19T12:50:17;18.00;1.00
4637;DHT22;2331;48.806;9.140;2023-05-19T12:52:45;18.00;1.00
4637;DHT22;2331;48.806;9.140;2023-05-19T12:55:13;17.90;1.00
4637;DHT22;2331;48.806;9.140;2023-05-19T12:57:42;18.00;1.00
4637;DHT22;2331;48.806;9.140;2023-05-19T13:00:13;18.00;1.00
4637;DHT22;2331;48.806;9.140;2023-05-19T13:02:57;18.00;1.00
4637;DHT22;2331;48.806;9.140;2023-05-19T13:05:24;17.90;1.00
4637;DHT22;2331;48.806;9.140;2023-05-19T13:07:55;17.90;1.00
4637;DHT22;2331;48.806;9.140;2023-05-19T13:10:23;17.80;1.00
4637;DHT22;2331;48.806;9.140;2023-05-19T13:12:51;17.80;1.00
4637;DHT22;2331;48.806;9.140;2023-05-19T13:15:19;17.70;1.00
4637;DHT22;2331;48.806;9.140;2023-05-19T13:17:45;17.70;1.00
4637;DHT22;2331;48.806;9.140;2023-05-19T13:20:13;17.80;1.00
4637;DHT22;2331;48.806;9.140;2023-05-19T13:22:40;17.80;1.00
4637;DHT22;2331;48.806;9.140;2023-05-19T13:25:08;17.70;1.00
4637;DHT22;2331;48.806;9.140;2023-05-19T13:27:35;17.70;1.00
4637;DHT22;2331;48.806;9.140;2023-05-19T13:30:02;17.60;1.00
4637;DHT22;2331;48.806;9.140;2023-05-19T13:32:30;17.60;1.00
4637;DHT22;2331;48.806;9.140;2023-05-19T13:34:56;17.70;1.00
4637;DHT22;2331;48.806;9.140;2023-05-19T13:37:25;17.70;1.00
4637;DHT22;2331;48.806;9.140;2023-05-19T13:39:52;17.70;1.00
4637;DHT22;2331;48.806;9.140;2023-05-19T13:42:19;17.60;1.00
4637;DHT22;2331;48.806;9.140;2023-05-19T13:44:46;17.60;1.00
4637;DHT22;2331;48.806;9.140;2023-05-19T13:47:13;17.60;1.00
4637;DHT22;2331;48.806;9.140;2023-05-19T13:49:40;17.60;1.00
4637;DHT22;2331;48.806;9.140;2023-05-19T13:52:07;17.70;1.00
4637;DHT22;2331;48.806;9.140;2023-05-19T13:54:35;17.60;1.00
4637;DHT22;2331;48.806;9.140;2023-05-19T13:57:02;17.70;1.00
4637;DHT22;2331;48.806;9.140;2023-05-19T13:59:28;17.70;1.00
4637;DHT22;2331;48.806;9.140;2023-05-19T14:01:55;17.60;1.00
4637;DHT22;2331;48.806;9.140;2023-05-19T14:04:22;17.50;1.00
4637;DHT22;2331;48.806;9.140;2023-05-19T14:06:49;17.50;1.00
4637;DHT22;2331;48.806;9.140;2023-05-19T14:09:16;17.50;1.00
4637;DHT22;2331;48.806;9.140;2023-05-19T14:11:44;17.50;1.00
4637;DHT22;2331;48.806;9.140;2023-05-19T14:14:11;17.50;1.00
4637;DHT22;2331;48.806;9.140;2023-05-19T14:16:38;17.60;1.00
4637;DHT22;2331;48.806;9.140;2023-05-19T14:19:05;17.50;1.00
4637;DHT22;2331;48.806;9.140;2023-05-19T14:21:32;17.50;1.00
4637;DHT22;2331;48.806;9.140;2023-05-19T14:23:58;17.50;1.00
4637;DHT22;2331;48.806;9.140;2023-05-19T14:26:26;17.60;1.00
4637;DHT22;2331;48.806;9.140;2023-05-19T14:28:54;17.50;1.00
4637;DHT22;2331;48.806;9.140;2023-05-19T14:31:22;17.50;1.00
4637;DHT22;2331;48.806;9.140;2023-05-19T14:33:50;17.60;1.00
4637;DHT22;2331;48.806;9.140;2023-05-19T14:36:19;17.60;1.00
4637;DHT22;2331;48.806;9.140;2023-05-19T14:38:46;17.60;1.00
4637;DHT22;2331;48.806;9.140;2023-05-19T14:41:12;17.60;1.00
4637;DHT22;2331;48.806;9.140;2023-05-19T14:43:39;17.70;1.00
4637;DHT22;2331;48.806;9.140;2023-05-19T14:46:08;17.80;1.00
4637;DHT22;2331;48.806;9.140;2023-05-19T14:48:35;17.70;1.00
4637;DHT22;2331;48.806;9.140;2023-05-19T14:51:02;17.80;1.00
4637;DHT22;2331;48.806;9.140;2023-05-19T14:53:29;17.80;1.00
4637;DHT22;2331;48.806;9.140;2023-05-19T14:55:56;17.80;1.00
4637;DHT22;2331;48.806;9.140;2023-05-19T14:58:22;17.80;1.00
4637;DHT22;2331;48.806;9.140;2023-05-19T15:00:49;17.80;1.00
4637;DHT22;2331;48.806;9.140;2023-05-19T15:03:17;17.90;1.00
4637;DHT22;2331;48.806;9.140;2023-05-19T15:05:44;17.90;1.00
4637;DHT22;2331;48.806;9.140;2023-05-19T15:08:11;17.90;1.00
4637;DHT22;2331;48.806;9.140;2023-05-19T15:10:37;17.90;1.00
4637;DHT22;2331;48.806;9.140;2023-05-19T15:13:04;18.00;1.00
4637;DHT22;2331;48.806;9.140;2023-05-19T15:15:31;17.90;1.00
4637;DHT22;2331;48.806;9.140;2023-05-19T15:17:57;17.90;1.00
4637;DHT22;2331;48.806;9.140;2023-05-19T15:20:26;17.90;1.00
4637;DHT22;2331;48.806;9.140;2023-05-19T15:22:52;17.90;1.00
4637;DHT22;2331;48.806;9.140;2023-05-19T15:25:19;18.00;1.00
4637;DHT22;2331;48.806;9.140;2023-05-19T15:27:46;18.00;1.00
4637;DHT22;2331;48.806;9.140;2023-05-19T15:30:13;18.00;1.00
4637;DHT22;2331;48.806;9.140;2023-05-19T15:32:39;18.10;1.00
4637;DHT22;2331;48.806;9.140;2023-05-19T15:35:07;18.00;1.00
4637;DHT22;2331;48.806;9.140;2023-05-19T15:37:35;18.10;1.00
4637;DHT22;2331;48.806;9.140;2023-05-19T15:40:02;18.10;1.00
4637;DHT22;2331;48.806;9.140;2023-05-19T15:42:29;18.10;1.00
4637;DHT22;2331;48.806;9.140;2023-05-19T15:44:55;18.10;1.00
4637;DHT22;2331;48.806;9.140;2023-05-19T15:47:22;18.20;1.00
4637;DHT22;2331;48.806;9.140;2023-05-19T15:49:49;18.20;1.00
4637;DHT22;2331;48.806;9.140;2023-05-19T15:52:16;18.30;1.00
4637;DHT22;2331;48.806;9.140;2023-05-19T15:54:44;18.30;1.00
4637;DHT22;2331;48.806;9.140;2023-05-19T15:57:12;18.30;1.00
4637;DHT22;2331;48.806;9.140;2023-05-19T15:59:38;18.30;1.00
4637;DHT22;2331;48.806;9.140;2023-05-19T16:02:05;18.30;1.00
4637;DHT22;2331;48.806;9.140;2023-05-19T16:04:32;18.30;1.00
4637;DHT22;2331;48.806;9.140;2023-05-19T16:06:59;18.30;1.00
4637;DHT22;2331;48.806;9.140;2023-05-19T16:09:26;18.40;1.00
4637;DHT22;2331;48.806;9.140;2023-05-19T16:11:54;18.40;1.00
4637;DHT22;2331;48.806;9.140;2023-05-19T16:14:20;18.50;1.00
4637;DHT22;2331;48.806;9.140;2023-05-19T16:16:47;18.40;1.00
4637;DHT22;2331;48.806;9.140;2023-05-19T16:19:14;18.40;1.00
4637;DHT22;2331;48.806;9.140;2023-05-19T16:21:41;18.50;1.00
4637;DHT22;2331;48.806;9.140;2023-05-19T16:24:07;18.50;1.00
4637;DHT22;2331;48.806;9.140;2023-05-19T16:26:34;18.60;1.00
4637;DHT22;2331;48.806;9.140;2023-05-19T16:29:02;18.60;1.00